Time;durP1;ratioP1;P1;durP2;ratioP2;P2;SDS_P1;SDS_P2;PMS_P1;PMS_P2;Temp;Humidity;BMP_temperature;BMP_pressure;BME280_temperature;BME280_humidity;BME280_pressure;Samples;Min_cycle;Max_cycle;Signal;HPM_P1;HPM_P2
2022/11/10 00:00:04;;;;;;;13.75;4.93;;;9.00;99.90;;;;;;5117782;28;20039;-80
2022/11/10 00:02:30;;;;;;;16.02;4.95;;;8.90;99.90;;;;;;5117276;27;20483;-80
2022/11/10 00:04:56;;;;;;;11.35;4.93;;;8.90;99.90;;;;;;5117671;28;20043;-80
2022/11/10 00:07:27;;;;;;;14.90;5.20;;;9.10;99.90;;;;;;5117794;28;20078;-80
2022/11/10 00:09:53;;;;;;;17.25;5.20;;;8.90;99.90;;;;;;5117551;28;20036;-80
2022/11/10 00:12:20;;;;;;;11.18;4.55;;;8.90;99.90;;;;;;5117436;28;20122;-80
2022/11/10 00:17:29;;;;;;;14.38;5.03;;;8.80;99.90;;;;;;5116637;28;20483;-80
2022/11/10 00:19:55;;;;;;;20.92;5.90;;;8.80;99.90;;;;;;5116568;28;20058;-80
2022/11/10 00:22:21;;;;;;;19.38;5.97;;;8.80;99.90;;;;;;5117211;28;20085;-80
2022/11/10 00:24:46;;;;;;;20.20;5.13;;;8.80;99.90;;;;;;5117711;28;20047;-79
2022/11/10 00:27:13;;;;;;;15.20;5.80;;;8.80;99.90;;;;;;5117294;28;20048;-80
2022/11/10 00:29:39;;;;;;;;;;;8.80;99.90;;;;;;5117684;28;20426;-80
2022/11/10 00:32:05;;;;;;;20.88;5.55;;;8.80;99.90;;;;;;5117542;27;20408;-79
2022/11/10 00:34:31;;;;;;;20.55;5.57;;;8.70;99.90;;;;;;5117025;27;20075;-80
2022/11/10 00:36:57;;;;;;;18.15;5.20;;;8.70;99.90;;;;;;5117113;28;20472;-80
2022/11/10 00:39:22;;;;;;;18.88;5.53;;;8.70;99.90;;;;;;5117256;28;20410;-79
2022/11/10 00:41:48;;;;;;;11.88;4.93;;;8.50;99.90;;;;;;5116791;27;20452;-80
2022/11/10 00:44:13;;;;;;;18.33;5.43;;;8.70;99.90;;;;;;5116847;28;20044;-80
2022/11/10 00:46:39;;;;;;;23.00;5.45;;;8.60;99.90;;;;;;5116747;28;20075;-79
2022/11/10 00:49:04;;;;;;;17.58;5.28;;;8.60;99.90;;;;;;5116936;28;20101;-79
2022/11/10 00:51:30;;;;;;;22.23;5.25;;;8.50;99.90;;;;;;5116820;28;20043;-80
2022/11/10 00:53:56;;;;;;;15.07;5.47;;;8.50;99.90;;;;;;5115670;28;20047;-80
2022/11/10 00:56:22;;;;;;;11.52;4.97;;;8.50;99.90;;;;;;5115549;28;20193;-79
2022/11/10 00:58:48;;;;;;;15.27;5.38;;;8.50;99.90;;;;;;5115230;28;20441;-79
2022/11/10 01:01:15;;;;;;;16.15;5.55;;;8.50;99.90;;;;;;5116678;28;20040;-79
2022/11/10 01:03:40;;;;;;;;;;;8.40;99.90;;;;;;5116926;28;20042;-80
2022/11/10 01:06:09;;;;;;;15.52;5.90;;;8.40;99.90;;;;;;5116386;28;19924;-79
2022/11/10 01:08:35;;;;;;;13.77;5.32;;;8.40;99.90;;;;;;5116367;28;20205;-80
2022/11/10 01:11:02;;;;;;;16.23;5.80;;;8.30;99.90;;;;;;5116217;28;20054;-79
2022/11/10 01:13:28;;;;;;;22.10;5.60;;;8.30;99.90;;;;;;5116149;28;20483;-79
2022/11/10 01:15:54;;;;;;;22.35;5.88;;;8.30;99.90;;;;;;5116640;28;20055;-79
2022/11/10 01:18:19;;;;;;;14.85;5.47;;;8.30;99.90;;;;;;5116574;28;20103;-80
2022/11/10 01:20:50;;;;;;;15.70;5.93;;;8.30;99.90;;;;;;5116666;28;20062;-79
2022/11/10 01:23:16;;;;;;;17.83;6.00;;;8.80;99.90;;;;;;5116749;28;20122;-80
2022/11/10 01:25:41;;;;;;;15.25;5.95;;;8.30;99.90;;;;;;5115527;28;20070;-79
2022/11/10 01:28:07;;;;;;;21.17;6.07;;;8.30;99.90;;;;;;5116650;28;20048;-80
2022/11/10 01:30:32;;;;;;;15.43;4.95;;;8.30;99.90;;;;;;5116490;28;20055;-80
2022/11/10 01:32:58;;;;;;;14.63;5.32;;;8.20;99.90;;;;;;5115959;28;20052;-79
2022/11/10 01:35:24;;;;;;;16.48;5.72;;;8.20;99.90;;;;;;5116025;28;20045;-79
2022/11/10 01:37:52;;;;;;;23.40;6.10;;;8.20;99.90;;;;;;5115963;28;20084;-79
2022/11/10 01:40:18;;;;;;;29.30;6.30;;;8.20;99.90;;;;;;5115921;28;20096;-79
2022/11/10 01:42:52;;;;;;;16.25;5.50;;;8.20;99.90;;;;;;5114625;28;20044;-80
2022/11/10 01:45:24;;;;;;;21.58;6.13;;;8.20;99.90;;;;;;5115100;28;20051;-79
2022/11/10 01:47:56;;;;;;;21.15;5.97;;;8.20;99.90;;;;;;5115790;28;20039;-80
2022/11/10 01:50:29;;;;;;;18.48;6.13;;;8.20;99.90;;;;;;5115707;28;20043;-80
2022/11/10 01:52:58;;;;;;;16.98;6.22;;;8.20;99.90;;;;;;5115701;28;20495;-79
2022/11/10 01:55:25;;;;;;;20.13;6.20;;;8.20;99.90;;;;;;5115899;28;20039;-80
2022/11/10 01:57:51;;;;;;;13.48;5.50;;;8.20;99.90;;;;;;5116151;28;20048;-79
2022/11/10 02:00:18;;;;;;;18.17;6.50;;;8.20;99.90;;;;;;5115550;28;20051;-80
2022/11/10 02:02:49;;;;;;;18.88;6.40;;;8.20;99.90;;;;;;5115392;28;20036;-80
2022/11/10 02:05:15;;;;;;;19.77;6.55;;;8.20;99.90;;;;;;5114993;28;20147;-79
2022/11/10 02:07:41;;;;;;;18.70;6.18;;;8.20;99.90;;;;;;5115304;27;20086;-79
2022/11/10 02:10:15;;;;;;;15.47;5.70;;;8.40;99.90;;;;;;5115440;28;20058;-80
2022/11/10 02:12:41;;;;;;;22.38;6.15;;;8.20;99.90;;;;;;5115333;28;20040;-80
2022/11/10 02:15:11;;;;;;;13.57;5.97;;;8.20;99.90;;;;;;5115194;28;20585;-79
2022/11/10 02:17:37;;;;;;;20.30;6.57;;;8.20;99.90;;;;;;5115049;28;20039;-79
2022/11/10 02:20:06;;;;;;;18.15;6.28;;;8.20;99.90;;;;;;5114920;28;20040;-80
2022/11/10 02:22:33;;;;;;;24.67;6.85;;;8.10;99.90;;;;;;5115397;28;20040;-79
2022/11/10 02:24:59;;;;;;;24.75;7.30;;;8.10;99.90;;;;;;5115298;28;20135;-79
2022/11/10 02:27:24;;;;;;;20.45;7.15;;;8.10;99.90;;;;;;5115078;28;20127;-79
2022/11/10 02:29:51;;;;;;;15.95;6.60;;;8.10;99.90;;;;;;5114833;28;20112;-79
2022/11/10 02:32:16;;;;;;;19.80;6.95;;;8.20;99.90;;;;;;5114920;28;20078;-79
2022/11/10 02:34:42;;;;;;;15.95;6.47;;;8.20;99.90;;;;;;5114737;28;20086;-80
2022/11/10 02:37:09;;;;;;;14.63;6.15;;;8.20;99.90;;;;;;5114888;28;20044;-80
2022/11/10 02:39:35;;;;;;;28.67;6.90;;;8.20;99.90;;;;;;5114969;28;20093;-80
2022/11/10 02:42:01;;;;;;;20.93;6.43;;;8.20;99.90;;;;;;5114510;28;20054;-79
2022/11/10 02:44:27;;;;;;;17.83;6.73;;;8.20;99.90;;;;;;5114812;28;20285;-79
2022/11/10 02:46:53;;;;;;;26.08;8.52;;;8.30;99.90;;;;;;5114519;28;20364;-79
2022/11/10 02:49:18;;;;;;;14.35;6.57;;;8.30;99.90;;;;;;5114789;28;20039;-79
2022/11/10 02:51:44;;;;;;;22.85;7.00;;;8.30;99.90;;;;;;5114917;28;20044;-79
2022/11/10 02:54:09;;;;;;;18.30;6.63;;;8.30;99.90;;;;;;5113558;28;20076;-79
2022/11/10 02:56:35;;;;;;;20.25;6.38;;;9.10;99.90;;;;;;5114586;28;20054;-80
2022/11/10 02:59:01;;;;;;;21.35;7.38;;;8.30;99.90;;;;;;5114784;28;20480;-79
2022/11/10 03:01:26;;;;;;;20.13;7.72;;;8.80;99.90;;;;;;5114642;28;20044;-79
2022/11/10 03:03:52;;;;;;;17.85;7.35;;;8.30;99.90;;;;;;5114592;28;20039;-79
2022/11/10 03:06:18;;;;;;;20.77;8.05;;;8.70;99.90;;;;;;5114119;28;20048;-80
2022/11/10 03:08:43;;;;;;;18.45;7.32;;;8.40;99.90;;;;;;5114781;28;20039;-80
2022/11/10 03:11:09;;;;;;;18.58;8.10;;;8.30;99.90;;;;;;5114414;28;20624;-79
2022/11/10 03:13:34;;;;;;;26.70;9.13;;;8.30;99.90;;;;;;5114289;28;20044;-79
2022/11/10 03:16:00;;;;;;;30.70;8.75;;;8.30;99.90;;;;;;5114577;28;20044;-80
2022/11/10 03:18:25;;;;;;;28.48;9.02;;;8.30;99.90;;;;;;5118535;28;20495;-80
2022/11/10 03:20:51;;;;;;;26.08;8.35;;;8.80;99.90;;;;;;5118427;28;20047;-79
2022/11/10 03:23:18;;;;;;;30.40;8.43;;;8.30;99.90;;;;;;5118212;28;20043;-79
2022/11/10 03:25:44;;;;;;;24.77;9.43;;;8.50;99.90;;;;;;5118459;28;20047;-80
2022/11/10 03:28:10;;;;;;;25.00;8.85;;;8.30;99.90;;;;;;5118566;28;20085;-80
2022/11/10 03:30:36;;;;;;;24.83;9.03;;;8.40;99.90;;;;;;5116997;27;20510;-80
2022/11/10 03:33:01;;;;;;;25.85;9.13;;;8.50;99.90;;;;;;5116775;28;20050;-80
2022/11/10 03:35:27;;;;;;;29.02;10.45;;;8.40;99.90;;;;;;5116742;28;20475;-79
2022/11/10 03:37:53;;;;;;;25.92;9.05;;;8.40;99.90;;;;;;5117010;28;20047;-80
2022/11/10 03:40:19;;;;;;;20.60;9.20;;;8.40;99.90;;;;;;5116689;28;20040;-79
2022/11/10 03:42:45;;;;;;;21.57;8.70;;;8.40;99.90;;;;;;5116486;28;20051;-80
2022/11/10 03:45:13;;;;;;;25.47;8.87;;;8.40;99.90;;;;;;5116692;28;20054;-79
2022/11/10 03:47:39;;;;;;;28.63;9.05;;;8.40;99.90;;;;;;5116710;28;20269;-79
2022/11/10 03:50:05;;;;;;;26.23;9.13;;;8.40;99.90;;;;;;5116661;28;20031;-79
2022/11/10 03:52:31;;;;;;;31.70;9.70;;;8.40;99.90;;;;;;5116505;28;20050;-79
2022/11/10 03:54:57;;;;;;;16.30;8.02;;;8.40;99.90;;;;;;5116474;28;20043;-79
2022/11/10 03:57:22;;;;;;;25.65;9.55;;;8.40;99.90;;;;;;5116670;28;20126;-79
2022/11/10 03:59:48;;;;;;;19.10;7.47;;;8.30;99.90;;;;;;5116518;28;20036;-78
2022/11/10 04:02:13;;;;;;;28.63;9.65;;;8.30;99.90;;;;;;5115211;28;20040;-80
2022/11/10 04:10:08;;;;;;;31.75;9.82;;;8.20;99.90;;;;;;5116456;28;20047;-79
2022/11/10 04:18:20;;;;;;;27.77;11.10;;;8.20;99.90;;;;;;5116525;28;20055;-80
2022/11/10 04:20:47;;;;;;;31.23;10.27;;;8.20;99.90;;;;;;5116265;28;20089;-79
2022/11/10 04:28:52;;;;;;;32.63;11.43;;;8.30;99.90;;;;;;5078900;28;1044445;-80
2022/11/10 04:31:20;;;;;;;29.88;11.75;;;8.30;99.90;;;;;;5116953;28;20126;-79
2022/11/10 04:33:46;;;;;;;29.98;11.70;;;8.30;99.90;;;;;;5117545;28;20044;-79
2022/11/10 04:36:18;;;;;;;27.20;11.90;;;8.30;99.90;;;;;;5116670;27;20054;-79
2022/11/10 04:38:44;;;;;;;32.97;12.63;;;8.30;99.90;;;;;;5117232;28;20112;-79
2022/11/10 04:41:10;;;;;;;32.42;13.50;;;8.30;99.90;;;;;;5116874;28;20492;-79
2022/11/10 04:43:36;;;;;;;37.40;13.03;;;8.30;99.90;;;;;;5116793;28;20079;-79
2022/11/10 04:46:03;;;;;;;46.47;14.32;;;9.00;99.90;;;;;;5116762;28;20075;-79
2022/11/10 04:48:30;;;;;;;30.13;13.60;;;8.30;99.90;;;;;;5116646;28;20054;-79
2022/11/10 04:50:56;;;;;;;35.25;13.82;;;8.30;99.90;;;;;;5117179;28;20043;-80
2022/11/10 04:53:24;;;;;;;33.60;14.07;;;8.30;99.90;;;;;;5116685;28;20043;-79
2022/11/10 04:55:50;;;;;;;37.78;14.02;;;8.40;99.90;;;;;;5116522;28;20042;-80
2022/11/10 04:58:15;;;;;;;36.63;14.15;;;9.00;99.90;;;;;;5116461;28;20040;-79
2022/11/10 05:00:41;;;;;;;33.70;14.38;;;8.40;99.90;;;;;;5116343;28;20048;-79
2022/11/10 05:03:09;;;;;;;40.50;15.10;;;8.40;99.90;;;;;;5116328;28;20075;-79
2022/11/10 05:05:34;;;;;;;42.40;14.65;;;8.40;99.90;;;;;;5116078;28;20514;-80
2022/11/10 05:08:01;;;;;;;30.42;14.30;;;8.40;99.90;;;;;;5116702;28;20052;-79
2022/11/10 05:10:26;;;;;;;32.08;15.07;;;8.50;99.90;;;;;;5116400;28;20051;-79
2022/11/10 05:12:56;;;;;;;43.90;14.77;;;8.50;99.90;;;;;;5116410;28;20099;-79
2022/11/10 05:15:23;;;;;;;37.85;16.13;;;8.50;99.90;;;;;;5116090;28;20180;-79
2022/11/10 05:17:49;;;;;;;36.72;14.55;;;8.60;99.90;;;;;;5116299;28;20076;-79
2022/11/10 05:20:17;;;;;;;46.92;16.05;;;8.60;99.90;;;;;;5116281;28;20065;-79
2022/11/10 05:23:36;;;;;;;45.70;15.57;;;8.60;99.90;;;;;;5116111;28;20036;-79
2022/11/10 05:25:33;;;;;;;44.42;16.42;;;8.70;99.90;;;;;;5116005;28;20055;-80
2022/11/10 05:27:59;;;;;;;38.63;16.75;;;8.70;99.90;;;;;;5116146;28;20426;-80
2022/11/10 05:30:24;;;;;;;44.28;16.58;;;8.70;99.90;;;;;;5116027;28;20063;-79
2022/11/10 05:32:50;;;;;;;43.33;14.18;;;9.10;99.90;;;;;;5115960;28;20047;-79
2022/11/10 05:35:15;;;;;;;34.15;15.60;;;8.70;99.90;;;;;;5116155;28;20043;-80
2022/11/10 05:37:41;;;;;;;42.22;16.45;;;8.80;99.90;;;;;;5115995;28;20058;-80
2022/11/10 05:40:07;;;;;;;54.25;15.45;;;8.80;99.90;;;;;;5115090;28;20086;-79
2022/11/10 05:42:33;;;;;;;39.57;15.10;;;8.80;99.90;;;;;;5115646;28;20035;-79
2022/11/10 05:44:58;;;;;;;37.55;15.43;;;8.80;99.90;;;;;;5115935;28;20105;-80
2022/11/10 05:47:24;;;;;;;49.45;15.35;;;8.80;99.90;;;;;;5115683;28;20482;-79
2022/11/10 05:49:49;;;;;;;39.22;15.07;;;8.80;99.90;;;;;;5114807;28;20075;-79
2022/11/10 05:52:15;;;;;;;35.50;13.75;;;8.80;99.90;;;;;;5115491;28;20062;-79
2022/11/10 05:54:41;;;;;;;34.47;13.10;;;8.80;99.90;;;;;;5115622;28;20051;-79
2022/11/10 05:57:06;;;;;;;43.75;15.30;;;9.00;99.90;;;;;;5115276;28;20042;-79
2022/11/10 05:59:32;;;;;;;37.47;15.18;;;9.50;99.90;;;;;;5115257;28;20079;-79
2022/11/10 06:01:57;;;;;;;42.83;15.68;;;8.80;99.90;;;;;;5098168;28;20043;-79
2022/11/10 06:04:23;;;;;;;40.75;14.50;;;8.80;99.90;;;;;;5115413;28;20540;-79
2022/11/10 06:06:49;;;;;;;42.22;15.20;;;8.80;99.90;;;;;;5115297;28;20042;-79
2022/11/10 06:09:14;;;;;;;44.92;15.02;;;9.50;99.90;;;;;;5115190;28;20392;-79
2022/11/10 06:11:40;;;;;;;42.55;14.98;;;8.80;99.90;;;;;;5115302;28;20042;-80
2022/11/10 06:14:05;;;;;;;42.88;14.48;;;8.80;99.90;;;;;;5115085;28;20093;-80
2022/11/10 06:16:31;;;;;;;35.97;14.60;;;8.80;99.90;;;;;;5115069;28;20050;-80
2022/11/10 06:18:56;;;;;;;36.63;15.52;;;8.80;99.90;;;;;;5115114;28;20127;-80
2022/11/10 06:21:22;;;;;;;36.33;15.90;;;8.80;99.90;;;;;;5115168;28;20117;-80
2022/11/10 06:23:48;;;;;;;39.33;16.10;;;8.90;99.90;;;;;;5114998;28;20105;-79
2022/11/10 06:26:13;;;;;;;37.38;14.43;;;8.90;99.90;;;;;;5115016;28;20043;-80
2022/11/10 06:28:39;;;;;;;42.33;15.98;;;8.90;99.90;;;;;;5114772;28;20048;-79
2022/11/10 06:31:04;;;;;;;40.92;16.17;;;8.90;99.90;;;;;;5114884;28;20054;-80
2022/11/10 06:33:30;;;;;;;34.08;14.52;;;9.10;99.90;;;;;;5115309;28;20040;-79
2022/11/10 06:35:55;;;;;;;44.58;14.55;;;8.90;99.90;;;;;;5114700;28;20044;-80
2022/11/10 06:38:21;;;;;;;34.42;13.38;;;8.90;99.90;;;;;;5114545;28;20492;-79
2022/11/10 06:40:46;;;;;;;38.08;14.32;;;8.90;99.90;;;;;;5114703;28;20050;-79
2022/11/10 06:43:12;;;;;;;31.73;13.50;;;9.50;99.90;;;;;;5114758;28;20044;-79
2022/11/10 06:45:38;;;;;;;33.35;12.68;;;9.50;99.90;;;;;;5114634;28;20491;-80
2022/11/10 06:48:13;;;;;;;33.03;13.57;;;8.90;99.90;;;;;;5114563;28;20161;-79
2022/11/10 06:50:39;;;;;;;29.85;13.20;;;8.90;99.90;;;;;;5114687;28;20048;-79
2022/11/10 06:53:05;;;;;;;39.00;13.07;;;8.80;99.90;;;;;;5114613;28;20503;-79
2022/11/10 06:55:31;;;;;;;32.22;13.20;;;8.80;99.90;;;;;;5114394;28;20130;-79
2022/11/10 06:57:57;;;;;;;36.33;12.83;;;8.80;99.90;;;;;;5114401;28;20043;-79
2022/11/10 07:00:26;;;;;;;32.08;11.95;;;8.80;99.90;;;;;;5114557;28;20035;-79
2022/11/10 07:03:02;;;;;;;26.65;12.30;;;8.80;99.90;;;;;;5114711;28;20432;-79
2022/11/10 07:05:28;;;;;;;26.33;11.52;;;8.80;99.90;;;;;;5114519;28;20042;-79
2022/11/10 07:07:54;;;;;;;29.05;11.23;;;8.80;99.90;;;;;;5114350;28;20035;-79
2022/11/10 07:10:19;;;;;;;31.10;12.23;;;8.80;99.90;;;;;;5114373;28;20044;-79
2022/11/10 07:12:45;;;;;;;31.58;11.85;;;8.80;99.90;;;;;;5114280;28;20050;-80
2022/11/10 07:15:10;;;;;;;33.63;12.25;;;8.90;99.90;;;;;;5114813;28;20379;-79
2022/11/10 07:17:39;;;;;;;23.15;11.25;;;8.90;99.90;;;;;;5114352;28;20035;-79
2022/11/10 07:20:06;;;;;;;36.92;13.10;;;8.90;99.90;;;;;;5114260;28;20420;-78
2022/11/10 07:22:32;;;;;;;34.33;11.65;;;9.00;99.90;;;;;;5114207;28;20039;-79
2022/11/10 07:24:57;;;;;;;31.77;12.65;;;9.00;99.90;;;;;;5114216;28;20048;-79
2022/11/10 07:27:23;;;;;;;31.35;12.20;;;9.00;99.90;;;;;;5114045;28;20083;-79
2022/11/10 07:29:48;;;;;;;27.77;12.93;;;9.10;99.90;;;;;;5114074;28;20498;-79
2022/11/10 07:32:14;;;;;;;36.00;12.80;;;9.10;99.90;;;;;;5114313;28;20075;-79
2022/11/10 07:34:40;;;;;;;32.90;12.77;;;9.20;99.90;;;;;;5114492;28;20039;-79
2022/11/10 07:37:05;;;;;;;26.75;13.25;;;9.30;99.90;;;;;;5114019;28;20540;-79
2022/11/10 07:39:31;;;;;;;33.60;13.70;;;9.40;99.90;;;;;;5114171;28;20050;-78
2022/11/10 07:41:56;;;;;;;34.95;11.73;;;9.40;99.90;;;;;;5113788;28;20039;-79
2022/11/10 07:44:22;;;;;;;31.80;11.82;;;9.50;99.90;;;;;;5114130;28;20577;-79
2022/11/10 07:46:48;;;;;;;29.70;12.68;;;9.50;99.90;;;;;;5114236;28;20047;-79
2022/11/10 07:49:14;;;;;;;30.02;12.90;;;9.90;99.90;;;;;;5114355;28;20070;-79
2022/11/10 07:51:42;;;;;;;38.38;12.57;;;9.60;99.90;;;;;;5113923;28;20475;-78
2022/11/10 07:54:07;;;;;;;31.60;12.95;;;9.70;99.90;;;;;;5114094;28;20044;-79
2022/11/10 07:56:33;;;;;;;32.20;12.68;;;9.70;99.90;;;;;;5114105;28;20476;-79
2022/11/10 07:58:58;;;;;;;38.58;13.88;;;9.80;99.90;;;;;;5113834;28;20035;-79
2022/11/10 08:01:24;;;;;;;34.85;13.73;;;10.40;99.90;;;;;;5113843;28;20047;-79
2022/11/10 08:03:49;;;;;;;31.00;12.77;;;9.80;99.90;;;;;;5116950;28;20490;-79
2022/11/10 08:06:15;;;;;;;33.05;13.00;;;9.90;99.90;;;;;;5117754;28;20139;-79
2022/11/10 08:08:41;;;;;;;33.83;12.63;;;9.80;99.90;;;;;;5117620;28;20499;-79
2022/11/10 08:11:06;;;;;;;31.45;12.70;;;9.90;99.90;;;;;;5117727;28;20130;-79
2022/11/10 08:13:32;;;;;;;24.38;12.43;;;9.90;99.90;;;;;;5117220;28;20544;-80
2022/11/10 08:15:58;;;;;;;33.40;11.77;;;9.90;99.90;;;;;;5117385;28;20039;-80
2022/11/10 08:18:24;;;;;;;25.77;11.87;;;9.90;99.90;;;;;;5117547;28;20051;-79
2022/11/10 08:20:51;;;;;;;27.33;11.13;;;10.50;99.90;;;;;;5117546;28;20282;-80
2022/11/10 08:23:16;;;;;;;31.35;12.45;;;9.90;99.90;;;;;;5117372;28;20046;-79
2022/11/10 08:25:43;;;;;;;34.72;12.38;;;9.90;99.90;;;;;;5116194;28;20462;-79
2022/11/10 08:28:14;;;;;;;29.58;11.93;;;9.80;99.90;;;;;;5117233;28;20043;-79
2022/11/10 08:30:42;;;;;;;29.05;12.63;;;10.00;99.90;;;;;;5116988;27;20536;-79
2022/11/10 08:33:10;;;;;;;30.00;12.75;;;10.00;99.90;;;;;;5117243;28;20079;-79
2022/11/10 08:35:42;;;;;;;28.10;11.80;;;10.00;99.90;;;;;;5117099;28;20073;-79
2022/11/10 08:38:10;;;;;;;39.92;12.18;;;9.90;99.90;;;;;;5117125;28;20043;-78
2022/11/10 08:40:36;;;;;;;28.73;11.18;;;10.00;99.90;;;;;;5116884;28;20044;-78
2022/11/10 08:43:06;;;;;;;24.90;10.70;;;10.00;99.90;;;;;;5116812;28;20061;-79
2022/11/10 08:45:33;;;;;;;26.05;10.95;;;10.00;99.90;;;;;;5116994;28;20047;-79
2022/11/10 08:48:01;;;;;;;29.73;12.07;;;10.00;99.90;;;;;;5116911;28;20092;-79
2022/11/10 08:50:27;;;;;;;20.98;11.27;;;10.10;99.90;;;;;;5116710;28;20043;-79
2022/11/10 08:52:54;;;;;;;30.30;10.43;;;10.20;99.90;;;;;;5116774;28;20040;-79
2022/11/10 08:55:20;;;;;;;29.00;10.93;;;10.30;99.90;;;;;;5116636;28;20475;-79
2022/11/10 08:57:47;;;;;;;26.05;9.48;;;10.40;99.90;;;;;;5116781;28;20130;-80
2022/11/10 09:00:14;;;;;;;24.83;9.70;;;10.50;99.90;;;;;;5116842;28;20050;-80
2022/11/10 09:02:39;;;;;;;32.08;9.10;;;10.60;99.90;;;;;;5116399;28;20044;-79
2022/11/10 09:05:06;;;;;;;17.98;9.13;;;10.60;99.90;;;;;;5116607;28;20124;-79
2022/11/10 09:07:45;;;;;;;27.73;9.45;;;10.70;99.90;;;;;;5116682;28;20043;-78
2022/11/10 09:10:12;;;;;;;21.55;9.35;;;10.80;99.90;;;;;;5116694;28;20051;-79
2022/11/10 09:12:38;;;;;;;22.55;8.85;;;11.10;99.90;;;;;;5116829;28;20065;-79
2022/11/10 09:15:05;;;;;;;26.13;8.73;;;10.90;99.90;;;;;;5115191;28;20092;-78
2022/11/10 09:17:31;;;;;;;21.50;8.93;;;11.00;99.90;;;;;;5116191;28;20066;-79
2022/11/10 09:19:57;;;;;;;19.02;7.65;;;11.00;99.90;;;;;;5116192;28;20122;-79
2022/11/10 09:22:22;;;;;;;19.95;7.53;;;11.00;99.90;;;;;;5114832;28;20440;-79
2022/11/10 09:24:48;;;;;;;16.83;7.68;;;11.00;99.90;;;;;;5116454;28;20047;-79
2022/11/10 09:27:14;;;;;;;15.00;7.07;;;11.50;99.90;;;;;;5116164;28;20036;-79
2022/11/10 09:29:39;;;;;;;21.40;6.45;;;11.10;99.90;;;;;;5116227;28;20076;-79
2022/11/10 09:32:05;;;;;;;21.13;7.95;;;11.20;99.90;;;;;;5116073;28;20044;-79
2022/11/10 09:34:30;;;;;;;18.92;7.72;;;11.20;99.90;;;;;;5115987;28;20475;-79
2022/11/10 09:36:56;;;;;;;23.80;7.47;;;11.20;99.90;;;;;;5116031;28;20050;-80
2022/11/10 09:39:22;;;;;;;22.30;7.90;;;11.20;99.90;;;;;;5116356;28;20550;-78
2022/11/10 09:41:47;;;;;;;23.10;7.18;;;11.30;99.90;;;;;;5115736;28;20043;-79
2022/11/10 09:44:32;;;;;;;21.95;7.15;;;11.30;99.90;;;;;;5116074;28;20044;-78
2022/11/10 09:47:23;;;;;;;19.90;7.07;;;11.40;99.90;;;;;;5115884;28;20050;-79
2022/11/10 09:49:55;;;;;;;21.73;6.38;;;11.50;99.90;;;;;;5112379;28;20515;-79
2022/11/10 09:52:23;;;;;;;21.23;7.00;;;11.50;99.90;;;;;;5115238;28;20564;-78
2022/11/10 09:55:17;;;;;;;21.42;5.88;;;12.00;99.90;;;;;;5115529;28;20051;-79
2022/11/10 09:57:43;;;;;;;18.63;6.15;;;11.70;99.90;;;;;;5115680;28;20130;-79
2022/11/10 10:00:17;;;;;;;17.35;5.80;;;11.80;99.90;;;;;;5115519;27;20128;-79
2022/11/10 10:02:57;;;;;;;19.88;6.03;;;11.90;99.90;;;;;;5115830;28;20112;-79
2022/11/10 10:05:50;;;;;;;22.42;5.10;;;11.90;99.90;;;;;;5115835;28;20118;-79
2022/11/10 10:08:23;;;;;;;19.50;5.40;;;12.00;99.90;;;;;;5115257;28;20097;-79
2022/11/10 10:11:03;;;;;;;28.25;5.35;;;12.10;99.90;;;;;;5115282;28;20082;-78
2022/11/10 10:14:12;;;;;;;20.40;5.57;;;12.10;99.90;;;;;;5115589;28;20092;-78
2022/11/10 10:16:47;;;;;;;17.25;4.50;;;12.20;99.90;;;;;;5115250;28;20047;-78
2022/11/10 10:19:39;;;;;;;16.13;4.43;;;12.20;99.90;;;;;;5114606;28;20091;-78
2022/11/10 10:22:27;;;;;;;20.17;5.05;;;12.30;99.90;;;;;;5115258;28;20040;-79
2022/11/10 10:24:58;;;;;;;18.27;4.70;;;12.40;99.90;;;;;;5114944;28;20035;-78
2022/11/10 10:27:25;;;;;;;14.20;4.65;;;12.60;99.90;;;;;;5115044;28;20388;-79
2022/11/10 10:29:51;;;;;;;15.65;4.18;;;12.70;99.90;;;;;;5114985;28;20445;-79
2022/11/10 10:32:18;;;;;;;15.15;4.55;;;12.70;99.90;;;;;;5115017;28;20380;-79
2022/11/10 10:34:44;;;;;;;17.83;4.15;;;12.70;99.90;;;;;;5114823;28;20040;-79
2022/11/10 10:37:29;;;;;;;14.00;4.22;;;12.60;99.90;;;;;;5114985;27;20062;-78
2022/11/10 10:39:54;;;;;;;17.30;3.58;;;12.60;99.90;;;;;;5114354;28;20563;-78
2022/11/10 10:42:35;;;;;;;10.35;3.60;;;12.70;99.90;;;;;;5114760;28;20118;-79
2022/11/10 10:45:15;;;;;;;16.08;3.75;;;12.80;99.90;;;;;;5114603;28;20078;-79
2022/11/10 10:47:41;;;;;;;16.23;3.70;;;12.80;99.90;;;;;;5114784;28;20110;-79
2022/11/10 10:50:27;;;;;;;17.48;3.78;;;12.90;99.90;;;;;;5114744;28;20039;-78
2022/11/10 10:53:15;;;;;;;13.57;4.05;;;13.00;99.90;;;;;;5114755;28;20425;-78
2022/11/10 10:55:45;;;;;;;;;;;13.00;99.90;;;;;;5115021;28;20043;-79
2022/11/10 10:58:28;;;;;;;18.35;3.53;;;13.00;99.90;;;;;;5114536;28;19920;-79
2022/11/10 11:01:22;;;;;;;16.75;4.20;;;13.10;99.90;;;;;;5114486;28;20047;-79
2022/11/10 11:03:50;;;;;;;14.45;3.72;;;13.20;99.90;;;;;;5114486;28;20451;-78
2022/11/10 11:06:15;;;;;;;16.10;3.33;;;13.20;99.90;;;;;;5113147;28;20047;-79
2022/11/10 11:08:59;;;;;;;17.77;3.83;;;13.30;99.90;;;;;;5114459;28;20048;-79
2022/11/10 11:11:31;;;;;;;15.98;4.22;;;13.10;99.90;;;;;;5114486;28;20047;-79
2022/11/10 11:14:26;;;;;;;14.20;3.90;;;13.70;99.90;;;;;;5114374;28;20479;-78
2022/11/10 11:16:53;;;;;;;12.00;3.70;;;13.20;99.90;;;;;;5114362;28;20044;-78
2022/11/10 11:19:21;;;;;;;22.17;4.82;;;13.20;99.90;;;;;;5114243;28;20051;-78
2022/11/10 11:21:53;;;;;;;18.42;4.00;;;13.30;99.90;;;;;;5114037;28;20036;-79
2022/11/10 11:24:24;;;;;;;9.77;3.70;;;13.30;99.90;;;;;;5114163;28;20502;-79
2022/11/10 11:27:18;;;;;;;13.25;3.65;;;13.40;99.90;;;;;;5114245;28;20043;-78
2022/11/10 11:30:00;;;;;;;17.20;5.00;;;13.40;99.90;;;;;;5107622;28;20087;-79
2022/11/10 11:32:50;;;;;;;14.90;4.60;;;13.50;99.90;;;;;;5114776;28;20433;-78
2022/11/10 11:35:18;;;;;;;18.77;4.25;;;13.60;99.90;;;;;;5114415;28;20058;-78
2022/11/10 11:38:09;;;;;;;15.02;4.05;;;13.70;99.90;;;;;;5115755;28;20112;-78
2022/11/10 11:40:37;;;;;;;16.00;4.53;;;13.70;99.90;;;;;;5118122;27;20062;-79
2022/11/10 11:43:15;;;;;;;16.17;4.07;;;13.80;99.90;;;;;;5118278;28;20039;-78
2022/11/10 11:45:45;;;;;;;;;;;13.80;99.90;;;;;;5118721;28;20092;-78
2022/11/10 11:48:22;;;;;;;15.48;4.45;;;13.90;99.90;;;;;;5118032;28;19919;-78
2022/11/10 11:51:04;;;;;;;15.57;4.85;;;13.80;99.90;;;;;;5117908;28;20052;-79
2022/11/10 11:53:55;;;;;;;17.88;4.78;;;13.80;99.90;;;;;;5118402;28;20100;-79
2022/11/10 11:56:30;;;;;;;16.02;4.30;;;13.80;99.90;;;;;;5118080;28;20068;-79
2022/11/10 11:59:16;;;;;;;17.33;4.78;;;13.80;99.90;;;;;;5117858;28;20087;-78
2022/11/10 12:02:14;;;;;;;17.25;4.50;;;13.80;99.90;;;;;;5118581;28;20043;-78
2022/11/10 12:05:01;;;;;;;14.85;4.30;;;13.80;99.90;;;;;;5108923;28;20081;-79
2022/11/10 12:07:41;;;;;;;13.43;4.07;;;13.80;99.90;;;;;;5117816;28;20043;-78
2022/11/10 12:10:13;;;;;;;17.42;4.22;;;13.80;99.90;;;;;;5117881;28;20510;-79
2022/11/10 12:13:02;;;;;;;17.90;3.60;;;13.80;99.90;;;;;;5117640;28;20377;-79
2022/11/10 12:15:41;;;;;;;15.13;3.72;;;13.90;99.90;;;;;;5117632;28;20051;-79
2022/11/10 12:18:28;;;;;;;16.08;3.20;;;13.90;99.90;;;;;;5116449;28;20172;-79
2022/11/10 12:21:31;;;;;;;13.68;3.25;;;13.90;99.90;;;;;;5117533;28;20066;-79
2022/11/10 12:24:32;;;;;;;12.18;3.42;;;14.00;99.90;;;;;;5116990;28;20570;-80
2022/11/10 12:27:16;;;;;;;15.82;3.67;;;14.10;99.90;;;;;;5117529;28;20526;-79
2022/11/10 12:29:51;;;;;;;16.90;3.50;;;14.10;99.90;;;;;;5117686;28;20056;-80
2022/11/10 12:32:47;;;;;;;13.57;3.55;;;14.10;99.90;;;;;;5117338;28;20048;-80
2022/11/10 12:35:25;;;;;;;13.07;3.55;;;14.30;99.90;;;;;;5094955;28;20520;-80
2022/11/10 12:38:06;;;;;;;14.95;2.90;;;14.10;99.90;;;;;;5117011;28;20057;-80
2022/11/10 12:40:51;;;;;;;16.33;3.50;;;14.60;99.90;;;;;;5117163;28;20079;-80
2022/11/10 12:43:29;;;;;;;15.02;3.70;;;14.40;99.90;;;;;;5116777;28;20085;-79
2022/11/10 12:46:00;;;;;;;;;;;14.10;99.90;;;;;;5117822;28;20088;-80
2022/11/10 12:48:37;;;;;;;12.68;3.22;;;14.10;99.90;;;;;;5116711;28;20419;-78
2022/11/10 12:51:06;;;;;;;13.10;3.08;;;14.10;99.90;;;;;;5116973;28;20052;-80
2022/11/10 12:53:35;;;;;;;19.75;3.10;;;14.20;99.90;;;;;;5116647;28;20126;-78
2022/11/10 12:56:27;;;;;;;23.77;5.07;;;14.20;99.90;;;;;;5116874;28;20504;-79
2022/11/10 12:59:18;;;;;;;11.95;3.13;;;14.20;99.90;;;;;;5116939;28;20044;-79
2022/11/10 13:01:47;;;;;;;15.23;3.35;;;14.10;99.90;;;;;;5116580;28;20066;-79
2022/11/10 13:04:15;;;;;;;13.77;4.10;;;14.10;99.90;;;;;;5116420;28;20044;-79
2022/11/10 13:06:52;;;;;;;10.35;2.85;;;14.10;99.90;;;;;;5116547;28;20513;-79
2022/11/10 13:09:30;;;;;;;16.67;3.03;;;14.00;99.90;;;;;;5116373;28;20051;-80
2022/11/10 13:12:19;;;;;;;14.02;2.95;;;14.00;99.90;;;;;;5116582;28;20424;-80